Time;durP1;ratioP1;P1;durP2;ratioP2;P2;SDS_P1;SDS_P2;PMS_P1;PMS_P2;Temp;Humidity;BMP_temperature;BMP_pressure;BME280_temperature;BME280_humidity;BME280_pressure;Samples;Min_cycle;Max_cycle;Signal;HPM_P1;HPM_P2
2023/02/20 00:00:37;;;;;;;45.63;29.05;;;9.40;99.90;;;;;;4972393;28;20053;-66
2023/02/20 00:03:05;;;;;;;45.58;29.15;;;9.10;99.90;;;;;;4955121;28;20046;-65
2023/02/20 00:05:33;;;;;;;41.90;28.20;;;9.20;99.90;;;;;;4973653;28;20496;-67
2023/02/20 00:08:01;;;;;;;40.85;27.90;;;9.20;99.90;;;;;;4956572;28;20039;-67
2023/02/20 00:10:28;;;;;;;38.95;27.02;;;9.40;99.90;;;;;;4973609;28;20051;-67
2023/02/20 00:12:55;;;;;;;46.00;28.77;;;9.50;99.90;;;;;;4973904;28;21154;-67
2023/02/20 00:15:22;;;;;;;42.67;29.02;;;9.50;99.90;;;;;;4971375;28;20049;-67
2023/02/20 00:17:50;;;;;;;40.70;28.95;;;9.30;99.90;;;;;;4956437;28;20058;-67
2023/02/20 00:20:20;;;;;;;51.80;29.40;;;9.30;99.90;;;;;;4973889;28;20471;-67
2023/02/20 00:22:48;;;;;;;;;;;9.10;99.90;;;;;;4972735;28;20045;-68
2023/02/20 00:25:20;;;;;;;46.15;30.00;;;9.00;99.90;;;;;;4970398;28;19922;-69
2023/02/20 00:27:47;;;;;;;53.50;30.90;;;8.90;99.90;;;;;;4971806;28;20415;-66
2023/02/20 00:30:18;;;;;;;45.35;29.00;;;8.90;99.90;;;;;;4940396;28;20050;-66
2023/02/20 00:32:49;;;;;;;53.95;30.58;;;9.10;99.90;;;;;;4973232;28;20120;-67
2023/02/20 00:35:17;;;;;;;48.97;28.20;;;8.90;99.90;;;;;;4973580;28;20434;-66
2023/02/20 00:37:46;;;;;;;47.00;30.42;;;9.00;99.90;;;;;;4973237;28;20038;-68
2023/02/20 00:40:15;;;;;;;51.35;30.95;;;9.10;99.90;;;;;;4973367;28;20049;-67
2023/02/20 00:42:43;;;;;;;48.78;30.13;;;8.90;99.90;;;;;;4970868;28;20163;-67
2023/02/20 00:45:12;;;;;;;45.83;30.48;;;9.00;99.90;;;;;;4972689;28;20065;-70
2023/02/20 00:47:39;;;;;;;44.50;29.67;;;9.10;99.90;;;;;;4973270;28;20039;-67
2023/02/20 00:50:07;;;;;;;51.75;29.77;;;9.00;99.90;;;;;;4973306;28;20046;-67
2023/02/20 00:52:38;;;;;;;45.70;28.13;;;8.80;99.90;;;;;;4972882;28;20035;-67
2023/02/20 00:55:05;;;;;;;;;;;8.60;99.90;;;;;;4971965;28;20506;-69
2023/02/20 00:57:33;;;;;;;43.47;28.75;;;8.70;99.90;;;;;;4956341;28;19925;-67
2023/02/20 01:00:00;;;;;;;47.72;29.70;;;8.60;99.90;;;;;;4973478;28;20427;-70
2023/02/20 01:02:29;;;;;;;42.75;25.65;;;8.50;99.90;;;;;;4960653;28;20031;-69
2023/02/20 01:04:57;;;;;;;41.95;25.20;;;8.60;99.90;;;;;;4955692;28;20380;-68
2023/02/20 01:07:25;;;;;;;43.78;24.10;;;8.70;99.90;;;;;;4973210;28;20039;-70
2023/02/20 01:09:52;;;;;;;44.45;24.27;;;8.80;99.90;;;;;;4973541;28;20046;-69
2023/02/20 01:12:19;;;;;;;42.00;25.15;;;9.10;99.90;;;;;;4973103;28;20050;-68
2023/02/20 01:14:47;;;;;;;27.15;15.85;;;9.10;99.90;;;;;;4972958;28;20039;-69
2023/02/20 01:17:14;;;;;;;36.83;21.60;;;9.70;99.90;;;;;;4973123;28;20039;-70
2023/02/20 01:19:43;;;;;;;25.85;17.00;;;9.60;99.90;;;;;;4956087;28;20042;-67
2023/02/20 01:22:10;;;;;;;19.27;13.35;;;9.90;99.90;;;;;;4973165;28;20391;-68
2023/02/20 01:24:42;;;;;;;24.45;14.50;;;10.10;98.90;;;;;;4973238;28;20046;-67
2023/02/20 01:27:09;;;;;;;23.10;13.95;;;10.30;98.90;;;;;;4961006;28;20046;-67
2023/02/20 01:29:36;;;;;;;20.80;14.10;;;10.50;98.40;;;;;;4955456;28;20050;-72
2023/02/20 01:32:03;;;;;;;14.88;10.75;;;10.40;98.40;;;;;;4956062;28;20050;-67
2023/02/20 01:34:31;;;;;;;13.70;10.15;;;10.70;97.40;;;;;;4972792;28;20097;-68
2023/02/20 01:36:59;;;;;;;15.18;9.82;;;10.90;96.40;;;;;;4955205;28;20047;-68
2023/02/20 01:39:29;;;;;;;16.85;10.10;;;10.90;96.30;;;;;;4972603;28;20046;-68
2023/02/20 01:41:58;;;;;;;;;;;10.90;96.30;;;;;;4953362;28;20058;-70
2023/02/20 01:44:31;;;;;;;14.57;10.73;;;10.90;96.30;;;;;;4966115;28;20335;-68
2023/02/20 01:46:59;;;;;;;16.75;11.55;;;10.80;96.30;;;;;;4951129;29;20047;-70
2023/02/20 01:49:48;;;;;;;19.08;12.10;;;10.70;96.30;;;;;;4952918;28;20054;-67
2023/02/20 01:52:34;;;;;;;18.65;11.85;;;10.60;96.80;;;;;;4948167;29;20049;-67
2023/02/20 01:55:07;;;;;;;19.95;12.85;;;10.50;97.30;;;;;;4920600;29;20047;-67
2023/02/20 01:57:38;;;;;;;18.88;13.35;;;10.40;97.70;;;;;;4935888;29;20125;-70
2023/02/20 02:00:15;;;;;;;20.58;12.60;;;10.10;98.30;;;;;;4952930;28;20110;-70
2023/02/20 02:02:48;;;;;;;18.63;11.38;;;10.00;98.50;;;;;;4951530;29;20078;-68
2023/02/20 02:05:17;;;;;;;17.65;11.15;;;10.00;98.50;;;;;;4953070;28;20046;-67
2023/02/20 02:07:45;;;;;;;17.90;11.27;;;10.00;98.90;;;;;;4934484;29;20055;-69
2023/02/20 02:10:17;;;;;;;13.57;10.40;;;10.10;98.60;;;;;;4952957;29;20069;-67
2023/02/20 02:12:50;;;;;;;14.57;9.98;;;10.20;98.40;;;;;;4951537;28;20143;-68
2023/02/20 02:15:20;;;;;;;13.27;9.75;;;10.30;98.00;;;;;;4952534;28;20492;-69
2023/02/20 02:17:55;;;;;;;14.30;9.23;;;10.10;98.40;;;;;;4953171;29;20062;-68
2023/02/20 02:20:38;;;;;;;15.45;9.20;;;10.20;98.30;;;;;;4952602;29;20043;-69
2023/02/20 02:23:38;;;;;;;11.50;9.45;;;10.30;98.10;;;;;;4952703;28;20511;-68
2023/02/20 02:26:40;;;;;;;13.18;10.00;;;10.30;98.00;;;;;;4944558;28;20377;-68
2023/02/20 02:29:34;;;;;;;14.18;9.43;;;10.20;98.40;;;;;;4942898;28;20061;-70
2023/02/20 02:32:16;;;;;;;14.25;10.10;;;10.20;98.20;;;;;;4952573;28;20039;-70
2023/02/20 02:35:19;;;;;;;22.90;15.38;;;10.10;98.30;;;;;;4952530;28;20051;-70
2023/02/20 02:38:00;;;;;;;28.02;18.27;;;9.70;98.90;;;;;;4941189;29;20047;-67
2023/02/20 02:40:45;;;;;;;29.63;19.30;;;9.10;99.90;;;;;;4935209;29;20043;-67
2023/02/20 02:43:26;;;;;;;25.67;17.45;;;9.00;99.90;;;;;;4935706;29;20385;-70
2023/02/20 02:45:54;;;;;;;42.35;26.02;;;9.20;99.90;;;;;;4934999;28;20081;-68
2023/02/20 02:48:50;;;;;;;42.58;27.00;;;8.50;99.90;;;;;;4941167;28;20146;-66
2023/02/20 02:51:26;;;;;;;41.25;27.15;;;8.20;99.90;;;;;;4971493;28;20042;-66
2023/02/20 02:54:10;;;;;;;44.25;27.10;;;8.20;99.90;;;;;;4943395;28;20058;-68
2023/02/20 02:56:44;;;;;;;45.72;27.40;;;8.20;99.90;;;;;;4971274;28;20431;-69
2023/02/20 02:59:31;;;;;;;39.42;27.40;;;8.10;99.90;;;;;;4954855;28;20039;-66
2023/02/20 03:02:04;;;;;;;42.08;27.30;;;8.10;99.90;;;;;;4952510;28;20051;-69
2023/02/20 03:04:32;;;;;;;42.63;26.23;;;8.20;99.90;;;;;;4971171;28;20030;-69
2023/02/20 03:07:06;;;;;;;34.08;22.08;;;8.30;99.90;;;;;;4971448;28;20380;-67
2023/02/20 03:10:02;;;;;;;32.80;23.00;;;8.40;99.90;;;;;;4960245;28;20062;-65
2023/02/20 03:12:31;;;;;;;29.15;18.35;;;8.50;99.90;;;;;;4969123;28;20051;-67
2023/02/20 03:18:30;;;;;;;14.57;11.52;;;8.50;99.90;;;;;;4962263;28;20039;-68
2023/02/20 03:21:05;;;;;;;20.13;13.20;;;9.00;99.90;;;;;;4948817;28;20054;-66
2023/02/20 03:23:39;;;;;;;16.38;12.38;;;9.10;99.90;;;;;;4969005;28;20035;-69
2023/02/20 03:26:16;;;;;;;18.15;12.98;;;9.10;99.90;;;;;;4954602;28;20054;-69
2023/02/20 03:29:23;;;;;;;15.85;11.32;;;9.10;99.90;;;;;;4973846;28;20093;-68
2023/02/20 03:43:26;;;;;;;38.75;24.35;;;8.90;99.90;;;;;;4975066;28;20409;-69
2023/02/20 03:46:07;;;;;;;39.78;23.75;;;8.00;99.90;;;;;;4964022;28;20051;-67
2023/02/20 03:48:42;;;;;;;34.50;21.77;;;7.80;99.90;;;;;;4957031;28;20149;-68
2023/02/20 03:51:11;;;;;;;28.05;17.55;;;8.00;99.90;;;;;;4975056;28;20042;-66
2023/02/20 03:53:40;;;;;;;24.85;17.27;;;8.40;99.90;;;;;;4957604;28;20046;-68
2023/02/20 03:56:16;;;;;;;24.92;17.02;;;8.80;99.90;;;;;;4957210;28;20038;-67
2023/02/20 03:58:51;;;;;;;28.15;17.10;;;8.80;99.90;;;;;;4957891;28;20450;-68
2023/02/20 04:01:21;;;;;;;30.77;18.67;;;8.80;99.90;;;;;;4974314;28;20031;-68
2023/02/20 04:03:51;;;;;;;25.67;17.92;;;8.80;99.90;;;;;;4974225;28;20635;-68
2023/02/20 04:06:20;;;;;;;17.52;11.40;;;8.80;99.90;;;;;;4957326;28;20049;-68
2023/02/20 04:08:48;;;;;;;23.40;14.18;;;9.00;99.90;;;;;;4974536;28;20380;-68
2023/02/20 04:11:18;;;;;;;20.35;13.48;;;9.10;99.90;;;;;;4974354;28;20043;-68
2023/02/20 04:13:46;;;;;;;;;;;9.10;99.90;;;;;;4957746;28;20050;-66
2023/02/20 04:16:13;;;;;;;23.05;15.80;;;8.80;99.90;;;;;;4974313;28;20322;-65
2023/02/20 04:18:41;;;;;;;22.10;16.02;;;8.60;99.90;;;;;;4973927;28;20053;-68
2023/02/20 04:21:37;;;;;;;21.45;13.02;;;8.50;99.90;;;;;;4949931;28;20456;-68
2023/02/20 04:24:13;;;;;;;26.08;15.88;;;8.20;99.90;;;;;;4955324;28;20055;-67
2023/02/20 04:26:40;;;;;;;26.05;16.33;;;8.10;99.90;;;;;;4973898;28;20055;-67
2023/02/20 04:29:07;;;;;;;24.05;16.13;;;8.40;99.90;;;;;;4974480;28;20049;-68
2023/02/20 04:31:34;;;;;;;18.25;11.63;;;8.70;99.90;;;;;;4973047;28;20062;-68
2023/02/20 04:34:02;;;;;;;18.95;12.60;;;8.80;99.90;;;;;;4956919;28;20074;-66
2023/02/20 04:36:29;;;;;;;19.67;11.85;;;9.10;99.90;;;;;;4956761;28;20054;-68
2023/02/20 04:38:56;;;;;;;22.30;12.23;;;9.10;99.90;;;;;;4973759;28;20045;-69
2023/02/20 04:41:24;;;;;;;17.08;12.13;;;9.20;99.90;;;;;;4973878;28;20046;-68
2023/02/20 04:44:29;;;;;;;15.65;10.73;;;9.10;99.90;;;;;;4959724;28;20415;-68
2023/02/20 04:46:38;;;;;;;15.07;10.68;;;9.50;99.90;;;;;;4972479;28;20063;-68
2023/02/20 04:49:05;;;;;;;13.68;10.40;;;9.60;99.90;;;;;;4971860;28;20094;-67
2023/02/20 04:51:32;;;;;;;15.65;10.25;;;9.60;99.90;;;;;;4955863;28;20483;-66
2023/02/20 04:53:59;;;;;;;14.48;10.13;;;9.70;99.90;;;;;;4956703;28;20443;-67
2023/02/20 04:56:27;;;;;;;13.73;9.90;;;9.90;99.90;;;;;;4973492;28;20550;-70
2023/02/20 04:58:54;;;;;;;14.07;9.73;;;10.00;99.90;;;;;;4973531;28;20039;-67
2023/02/20 05:01:21;;;;;;;15.85;10.70;;;10.00;99.90;;;;;;4943223;28;20487;-68
2023/02/20 05:03:49;;;;;;;17.13;10.48;;;10.10;99.90;;;;;;4973491;28;20031;-68
2023/02/20 05:06:16;;;;;;;20.38;13.80;;;10.00;99.90;;;;;;4973468;28;20046;-69
2023/02/20 05:08:43;;;;;;;24.05;16.17;;;9.70;99.90;;;;;;4973345;28;20419;-67
2023/02/20 05:11:10;;;;;;;26.95;17.05;;;9.20;99.90;;;;;;4973391;28;20469;-68
2023/02/20 05:13:37;;;;;;;30.80;17.75;;;8.70;99.90;;;;;;4971380;28;20046;-68
2023/02/20 05:16:05;;;;;;;25.80;16.15;;;8.50;99.90;;;;;;4945400;28;20572;-67
2023/02/20 05:18:33;;;;;;;22.80;15.70;;;8.60;99.90;;;;;;4973088;28;20051;-68
2023/02/20 05:23:46;;;;;;;22.10;14.18;;;8.80;99.90;;;;;;4973015;28;20039;-68
2023/02/20 05:26:19;;;;;;;27.83;14.73;;;8.90;99.90;;;;;;4960485;28;20126;-68
2023/02/20 05:28:46;;;;;;;22.50;15.35;;;8.90;99.90;;;;;;4928385;28;20058;-67
2023/02/20 05:31:14;;;;;;;22.02;15.27;;;8.90;99.90;;;;;;4954454;28;20051;-68
2023/02/20 05:33:43;;;;;;;25.02;16.13;;;8.90;99.90;;;;;;4973110;28;20043;-68
2023/02/20 05:36:11;;;;;;;28.33;16.15;;;9.00;99.90;;;;;;4971976;28;20051;-66
2023/02/20 05:38:40;;;;;;;26.92;16.90;;;9.00;99.90;;;;;;4971220;28;20047;-66
2023/02/20 05:41:07;;;;;;;24.40;16.08;;;9.10;99.90;;;;;;4970054;28;20046;-68
2023/02/20 05:43:35;;;;;;;19.25;13.45;;;9.10;99.90;;;;;;4972524;28;20050;-69
2023/02/20 05:46:02;;;;;;;19.40;13.18;;;9.20;99.90;;;;;;4971285;28;20442;-68
2023/02/20 05:48:29;;;;;;;19.92;13.30;;;9.50;99.90;;;;;;4972140;28;20435;-68
2023/02/20 05:50:56;;;;;;;18.88;12.30;;;9.70;99.90;;;;;;4955600;28;20097;-69
2023/02/20 05:53:27;;;;;;;17.42;12.43;;;9.40;99.90;;;;;;4960438;28;20046;-67
2023/02/20 05:55:55;;;;;;;23.30;14.10;;;9.60;99.90;;;;;;4955586;28;20042;-68
2023/02/20 05:58:23;;;;;;;26.90;15.15;;;9.40;99.90;;;;;;4971776;28;20038;-68
2023/02/20 06:00:50;;;;;;;21.05;14.95;;;9.00;99.90;;;;;;4954287;28;20373;-67
2023/02/20 06:03:17;;;;;;;33.78;16.88;;;8.90;99.90;;;;;;4972679;28;20066;-68
2023/02/20 06:05:45;;;;;;;26.35;15.98;;;8.90;99.90;;;;;;4960080;28;20042;-70
2023/02/20 06:08:12;;;;;;;28.58;16.05;;;8.80;99.90;;;;;;4955237;28;20054;-69
2023/02/20 06:10:39;;;;;;;26.50;16.48;;;8.60;99.90;;;;;;4972002;28;20039;-68
2023/02/20 06:13:06;;;;;;;25.27;15.68;;;8.60;99.90;;;;;;4970974;28;20037;-67
2023/02/20 06:15:34;;;;;;;26.02;16.20;;;8.70;99.90;;;;;;4971951;28;20035;-68
2023/02/20 06:18:01;;;;;;;27.27;16.88;;;8.80;99.90;;;;;;4971083;28;20454;-70
2023/02/20 06:20:28;;;;;;;45.13;27.77;;;8.80;99.90;;;;;;4952585;28;20047;-68
2023/02/20 06:22:56;;;;;;;265.20;142.75;;;8.90;99.90;;;;;;4970557;28;20047;-66
2023/02/20 06:25:23;;;;;;;92.20;55.58;;;9.00;99.90;;;;;;4952927;28;20150;-67
2023/02/20 06:27:51;;;;;;;146.50;82.38;;;9.10;99.90;;;;;;4970297;28;20035;-68
2023/02/20 06:30:19;;;;;;;118.53;67.10;;;9.10;99.90;;;;;;4950529;28;20035;-68
2023/02/20 06:32:46;;;;;;;38.28;25.52;;;9.00;99.90;;;;;;4971001;28;20041;-72
2023/02/20 06:35:14;;;;;;;26.73;17.58;;;9.00;99.90;;;;;;4955586;28;20038;-70
2023/02/20 06:37:41;;;;;;;28.45;18.98;;;9.00;99.90;;;;;;4951610;28;20122;-73
2023/02/20 06:40:09;;;;;;;25.83;17.88;;;8.80;99.90;;;;;;4949129;28;20054;-70
2023/02/20 06:42:37;;;;;;;26.65;17.40;;;8.50;99.90;;;;;;4954797;28;20404;-70
2023/02/20 06:45:04;;;;;;;30.50;16.95;;;8.40;99.90;;;;;;4971887;28;20043;-70
2023/02/20 06:47:31;;;;;;;26.55;15.85;;;8.50;99.90;;;;;;4971930;28;20041;-68
2023/02/20 06:49:59;;;;;;;26.15;16.15;;;8.60;99.90;;;;;;4972415;28;20035;-68
2023/02/20 06:52:26;;;;;;;29.02;15.88;;;8.80;99.90;;;;;;4971440;28;20039;-71
2023/02/20 06:54:53;;;;;;;25.23;16.48;;;8.80;99.90;;;;;;4969801;28;20105;-70
2023/02/20 06:57:21;;;;;;;27.00;17.48;;;8.80;99.90;;;;;;4962132;28;20038;-70
2023/02/20 06:59:48;;;;;;;29.83;17.10;;;9.10;99.90;;;;;;4954637;28;20054;-68
2023/02/20 07:02:17;;;;;;;36.88;19.92;;;9.30;99.90;;;;;;4958099;28;20419;-69
2023/02/20 07:04:48;;;;;;;196.57;104.03;;;9.40;99.90;;;;;;4958795;28;20510;-73
2023/02/20 07:07:15;;;;;;;46.88;29.73;;;9.60;99.90;;;;;;4971185;28;20057;-68
2023/02/20 07:09:43;;;;;;;26.88;18.90;;;9.60;99.90;;;;;;4975475;28;20042;-70
2023/02/20 07:12:10;;;;;;;22.90;14.65;;;9.70;99.90;;;;;;4957934;28;20138;-70
2023/02/20 07:14:38;;;;;;;26.23;16.38;;;9.80;99.90;;;;;;4955074;29;20031;-69
2023/02/20 07:17:05;;;;;;;25.08;16.92;;;9.90;99.90;;;;;;4972644;28;20070;-69
2023/02/20 07:19:32;;;;;;;24.63;15.68;;;10.00;99.90;;;;;;4975436;28;20042;-71
2023/02/20 07:22:00;;;;;;;24.10;15.95;;;10.10;99.90;;;;;;4959715;28;20050;-69
2023/02/20 07:24:27;;;;;;;26.98;15.52;;;10.10;99.90;;;;;;4958124;28;20054;-69
2023/02/20 07:26:54;;;;;;;22.38;15.68;;;10.10;99.90;;;;;;4974603;28;20047;-68
2023/02/20 07:29:20;;;;;;;24.75;14.50;;;10.10;99.90;;;;;;4973538;28;20023;-69
2023/02/20 07:31:48;;;;;;;23.88;16.90;;;10.10;99.90;;;;;;4973096;28;20538;-69
2023/02/20 07:34:15;;;;;;;23.77;15.88;;;10.00;99.90;;;;;;4973094;28;20038;-68
2023/02/20 07:36:42;;;;;;;27.50;16.27;;;10.10;99.90;;;;;;4972538;28;20049;-68
2023/02/20 07:39:11;;;;;;;26.73;17.90;;;10.20;99.90;;;;;;4972645;28;20046;-69
2023/02/20 07:41:39;;;;;;;23.35;16.60;;;10.40;99.90;;;;;;4972913;28;20501;-69
2023/02/20 07:44:07;;;;;;;25.38;15.82;;;10.50;99.90;;;;;;4972019;28;20117;-68
2023/02/20 07:46:34;;;;;;;28.27;16.33;;;10.70;99.90;;;;;;4974105;28;20380;-70
2023/02/20 07:49:03;;;;;;;28.48;16.67;;;10.80;99.90;;;;;;4974175;28;20035;-67
2023/02/20 07:51:31;;;;;;;23.80;15.70;;;11.00;99.90;;;;;;4974146;28;20377;-70
2023/02/20 07:53:58;;;;;;;22.23;15.27;;;11.30;99.90;;;;;;4957242;28;20338;-71
2023/02/20 07:56:25;;;;;;;30.30;16.35;;;11.40;99.90;;;;;;4974998;28;20434;-70
2023/02/20 07:58:53;;;;;;;25.00;15.68;;;11.70;99.90;;;;;;4974839;28;20046;-68
2023/02/20 08:01:20;;;;;;;29.42;15.48;;;12.10;99.50;;;;;;4967780;28;20040;-68
2023/02/20 08:03:48;;;;;;;17.13;11.10;;;12.20;99.10;;;;;;4951371;28;20062;-70
2023/02/20 08:06:19;;;;;;;18.17;10.65;;;12.20;98.00;;;;;;4974653;28;20085;-68
2023/02/20 08:08:50;;;;;;;20.33;12.98;;;12.40;97.80;;;;;;4974476;28;20134;-69
2023/02/20 08:11:18;;;;;;;22.05;14.02;;;12.60;97.00;;;;;;4956903;28;20507;-71
2023/02/20 08:13:46;;;;;;;14.45;10.18;;;12.60;97.40;;;;;;4973585;28;21490;-68
2023/02/20 08:16:13;;;;;;;13.02;9.27;;;12.80;95.90;;;;;;4974367;28;20054;-68
2023/02/20 08:18:41;;;;;;;13.20;7.85;;;12.80;95.70;;;;;;4956853;28;20051;-69
2023/02/20 08:21:08;;;;;;;9.88;7.90;;;12.70;94.90;;;;;;4974348;28;20410;-69
2023/02/20 08:23:36;;;;;;;11.38;6.80;;;12.70;94.80;;;;;;4973813;28;20049;-71
2023/02/20 08:26:04;;;;;;;10.57;7.15;;;12.90;94.10;;;;;;4957309;28;20051;-69
2023/02/20 08:28:32;;;;;;;7.68;5.90;;;12.80;94.00;;;;;;4956552;28;20464;-67
2023/02/20 08:31:00;;;;;;;9.75;6.43;;;12.80;93.30;;;;;;4956834;28;20125;-67
2023/02/20 08:33:27;;;;;;;14.15;6.05;;;12.80;93.60;;;;;;4967699;28;20114;-70
2023/02/20 08:35:56;;;;;;;6.97;5.13;;;13.10;93.40;;;;;;4954982;28;20061;-69
2023/02/20 08:38:35;;;;;;;10.68;5.53;;;13.10;92.00;;;;;;4956925;28;20058;-69
2023/02/20 08:41:09;;;;;;;10.63;5.20;;;13.00;92.00;;;;;;4962850;28;20049;-71
2023/02/20 08:43:38;;;;;;;8.75;5.50;;;13.10;91.90;;;;;;4973654;28;20138;-71
2023/02/20 08:46:06;;;;;;;8.75;5.50;;;13.50;91.50;;;;;;4937706;29;20096;-71
2023/02/20 08:48:34;;;;;;;9.77;5.50;;;13.80;90.10;;;;;;4940429;28;20059;-68
2023/02/20 08:51:08;;;;;;;6.45;4.82;;;13.80;89.70;;;;;;4973799;28;20039;-67
2023/02/20 08:53:37;;;;;;;6.72;4.97;;;13.70;88.30;;;;;;4955283;28;20042;-66
2023/02/20 08:56:06;;;;;;;7.40;5.03;;;13.50;89.30;;;;;;4940166;28;20067;-69
2023/02/20 08:58:33;;;;;;;9.18;6.65;;;13.50;90.00;;;;;;4971332;28;20042;-71
2023/02/20 09:01:00;;;;;;;8.15;5.55;;;13.30;90.00;;;;;;4971067;28;20039;-69
2023/02/20 09:03:28;;;;;;;9.30;5.43;;;13.40;89.40;;;;;;4973347;28;20388;-68
2023/02/20 09:05:55;;;;;;;13.25;5.35;;;13.70;87.80;;;;;;4972955;28;20129;-67
2023/02/20 09:08:22;;;;;;;8.23;4.40;;;13.90;87.20;;;;;;4955581;28;20043;-70
2023/02/20 09:10:50;;;;;;;6.47;4.22;;;14.00;86.00;;;;;;4969134;28;20455;-71
2023/02/20 09:13:17;;;;;;;10.73;5.45;;;13.80;85.50;;;;;;4955433;28;20043;-70
2023/02/20 09:15:44;;;;;;;4.88;3.67;;;13.80;85.10;;;;;;4940159;28;20054;-69
2023/02/20 09:18:13;;;;;;;5.88;4.00;;;13.60;84.50;;;;;;4972475;28;20054;-67
2023/02/20 09:20:41;;;;;;;7.18;4.82;;;13.80;83.90;;;;;;4972543;28;20403;-68
2023/02/20 09:23:08;;;;;;;6.75;4.50;;;14.20;84.40;;;;;;4971879;28;20407;-69
2023/02/20 09:25:36;;;;;;;9.15;4.97;;;14.30;83.80;;;;;;4971027;28;20031;-69
2023/02/20 09:28:04;;;;;;;11.10;5.07;;;14.40;84.00;;;;;;4955182;28;20043;-67
2023/02/20 09:30:31;;;;;;;8.20;4.95;;;13.90;84.40;;;;;;4969949;28;20111;-69
2023/02/20 09:32:58;;;;;;;7.22;4.53;;;13.80;85.00;;;;;;4972474;28;20118;-67
2023/02/20 09:35:28;;;;;;;6.45;4.82;;;13.90;84.80;;;;;;4972671;28;20045;-69
2023/02/20 09:37:55;;;;;;;7.85;4.63;;;14.10;84.40;;;;;;4972511;28;20089;-70
2023/02/20 09:40:24;;;;;;;6.95;4.25;;;14.30;83.50;;;;;;4954904;28;20070;-68
2023/02/20 09:43:14;;;;;;;9.10;4.43;;;14.30;81.30;;;;;;4968621;28;20466;-69
2023/02/20 09:46:04;;;;;;;8.23;4.25;;;14.60;80.90;;;;;;4962385;28;20456;-70
2023/02/20 09:49:00;;;;;;;4.80;3.05;;;15.20;76.90;;;;;;4954501;28;20452;-72
2023/02/20 09:51:32;;;;;;;5.57;3.65;;;15.60;71.30;;;;;;4970779;28;20043;-72
2023/02/20 09:54:02;;;;;;;18.60;4.65;;;15.80;71.40;;;;;;4952474;28;20046;-70
2023/02/20 09:56:34;;;;;;;7.50;3.80;;;15.80;71.90;;;;;;4954751;28;20057;-71
2023/02/20 09:59:16;;;;;;;7.85;3.20;;;15.50;71.20;;;;;;4972229;28;20126;-70
2023/02/20 10:01:54;;;;;;;8.30;4.20;;;15.40;71.00;;;;;;4968004;28;20046;-71
2023/02/20 10:04:32;;;;;;;6.93;3.58;;;15.80;70.30;;;;;;4969528;28;20188;-70
2023/02/20 10:07:18;;;;;;;25.40;4.97;;;16.10;69.00;;;;;;4972469;28;20411;-70
2023/02/20 10:09:46;;;;;;;16.20;4.63;;;16.10;68.80;;;;;;4939464;28;20050;-71
2023/02/20 10:12:43;;;;;;;14.13;4.72;;;16.30;69.50;;;;;;4968024;28;20046;-70
2023/02/20 10:15:13;;;;;;;7.70;4.32;;;16.60;72.40;;;;;;4970738;28;20055;-71
2023/02/20 10:18:15;;;;;;;7.63;4.75;;;16.50;70.00;;;;;;4953261;28;20038;-73
2023/02/20 10:21:17;;;;;;;7.05;4.50;;;16.20;71.90;;;;;;4950588;28;20038;-71
2023/02/20 10:23:57;;;;;;;10.57;3.47;;;16.80;68.90;;;;;;4952262;28;20051;-68
2023/02/20 10:26:38;;;;;;;6.10;3.53;;;17.10;66.40;;;;;;4969335;28;20046;-72
2023/02/20 10:29:24;;;;;;;10.85;3.40;;;17.00;66.80;;;;;;4970621;28;20050;-69
2023/02/20 10:32:00;;;;;;;5.53;3.13;;;16.60;66.50;;;;;;4966792;28;20038;-72
2023/02/20 10:34:41;;;;;;;6.57;3.90;;;16.40;65.80;;;;;;4953040;28;20161;-70
2023/02/20 10:37:15;;;;;;;15.95;5.05;;;15.80;66.90;;;;;;4952692;28;20042;-69
2023/02/20 10:39:59;;;;;;;7.47;4.05;;;16.10;66.90;;;;;;4965069;28;20047;-70
2023/02/20 10:42:43;;;;;;;8.50;3.55;;;15.80;66.80;;;;;;4965079;28;20503;-70
2023/02/20 10:45:31;;;;;;;5.18;3.15;;;15.70;66.20;;;;;;4968695;28;20054;-69
2023/02/20 10:48:07;;;;;;;18.90;4.32;;;16.20;66.40;;;;;;4970261;28;20047;-68
2023/02/20 10:50:50;;;;;;;11.95;3.78;;;16.40;64.40;;;;;;4970898;28;20046;-72
2023/02/20 10:53:41;;;;;;;5.60;2.97;;;16.80;63.60;;;;;;4969894;28;20039;-69
2023/02/20 10:56:47;;;;;;;22.67;3.92;;;17.10;63.20;;;;;;4937673;28;20051;-71
2023/02/20 10:59:37;;;;;;;7.22;3.08;;;17.90;62.10;;;;;;4952999;28;20045;-73
2023/02/20 11:02:14;;;;;;;13.15;4.55;;;17.00;60.90;;;;;;4951715;28;20069;-72
2023/02/20 11:04:49;;;;;;;6.35;2.65;;;17.70;64.90;;;;;;4936411;28;20150;-73
2023/02/20 11:07:21;;;;;;;6.82;2.60;;;17.20;59.80;;;;;;4936111;28;20039;-73
2023/02/20 11:09:49;;;;;;;6.57;2.90;;;17.40;60.90;;;;;;4954081;28;20050;-70
2023/02/20 11:12:26;;;;;;;13.15;3.78;;;18.80;58.60;;;;;;4953169;28;20053;-70
2023/02/20 11:14:56;;;;;;;6.70;2.00;;;21.00;53.20;;;;;;4953828;28;20054;-71
2023/02/20 11:17:26;;;;;;;14.48;3.47;;;21.60;51.70;;;;;;4953566;28;20062;-71
2023/02/20 11:19:56;;;;;;;4.68;2.50;;;22.40;49.50;;;;;;4956384;23;20415;-70
2023/02/20 11:22:43;;;;;;;10.48;2.80;;;21.40;50.50;;;;;;4950574;28;20063;-73
2023/02/20 11:25:29;;;;;;;4.72;2.33;;;21.90;50.30;;;;;;4944653;29;20365;-69
2023/02/20 11:28:08;;;;;;;6.63;2.97;;;22.20;48.60;;;;;;4951408;29;20055;-70
2023/02/20 11:30:40;;;;;;;10.77;4.47;;;21.30;50.30;;;;;;4949971;29;20416;-72
2023/02/20 11:33:25;;;;;;;6.38;3.30;;;21.80;48.50;;;;;;4945755;29;20043;-71
2023/02/20 11:35:56;;;;;;;4.82;2.30;;;23.90;45.90;;;;;;4949441;29;20046;-71
2023/02/20 11:38:30;;;;;;;6.95;2.95;;;18.30;52.60;;;;;;4950869;29;20035;-73
2023/02/20 11:41:01;;;;;;;4.32;2.28;;;17.70;55.30;;;;;;4951430;28;20040;-71
2023/02/20 11:43:33;;;;;;;6.45;3.08;;;19.00;53.70;;;;;;4950119;29;20054;-71
2023/02/20 11:46:21;;;;;;;8.50;2.63;;;20.10;51.70;;;;;;4946641;29;20047;-71
2023/02/20 11:49:08;;;;;;;7.38;2.60;;;19.00;53.20;;;;;;4946619;28;20387;-71
2023/02/20 11:51:40;;;;;;;5.80;2.50;;;18.70;54.70;;;;;;4955485;28;20035;-69
2023/02/20 11:54:15;;;;;;;8.40;2.95;;;20.20;52.50;;;;;;4955122;29;20377;-71
2023/02/20 11:57:05;;;;;;;5.53;2.50;;;20.80;51.80;;;;;;4947805;29;20475;-71
2023/02/20 11:59:44;;;;;;;6.30;3.83;;;18.20;54.90;;;;;;4943891;29;20130;-71
2023/02/20 12:02:16;;;;;;;5.18;2.70;;;18.00;55.60;;;;;;4946441;29;20067;-71
2023/02/20 12:04:59;;;;;;;8.50;3.38;;;18.70;54.60;;;;;;4953726;28;20086;-71
2023/02/20 12:07:32;;;;;;;5.32;2.78;;;19.80;53.50;;;;;;4954019;29;20035;-71
2023/02/20 12:10:39;;;;;;;6.85;2.70;;;19.70;51.80;;;;;;4955142;28;20464;-72
2023/02/20 12:13:12;;;;;;;9.55;2.78;;;19.90;53.30;;;;;;4946075;29;20054;-70
2023/02/20 12:15:40;;;;;;;6.20;2.30;;;20.10;51.80;;;;;;4955022;28;20040;-70
2023/02/20 12:18:16;;;;;;;5.78;2.53;;;20.30;50.90;;;;;;4956869;28;20378;-69
2023/02/20 12:20:56;;;;;;;9.95;2.83;;;19.20;51.80;;;;;;4974340;28;20038;-70
2023/02/20 12:23:39;;;;;;;7.50;2.60;;;20.50;51.20;;;;;;4952109;28;20053;-71
2023/02/20 12:26:18;;;;;;;4.70;2.30;;;19.30;50.50;;;;;;4974205;28;20042;-70
2023/02/20 12:28:53;;;;;;;5.45;2.65;;;19.30;51.10;;;;;;4974015;28;20054;-70
2023/02/20 12:31:35;;;;;;;6.72;2.90;;;20.20;50.40;;;;;;4974022;28;20398;-71
2023/02/20 12:34:25;;;;;;;6.40;3.17;;;19.40;49.90;;;;;;4941173;28;20047;-71
2023/02/20 12:36:57;;;;;;;6.72;2.75;;;18.80;50.80;;;;;;4972795;28;20075;-70
2023/02/20 12:39:52;;;;;;;6.68;2.80;;;18.40;50.90;;;;;;4974291;28;20042;-71
2023/02/20 12:42:28;;;;;;;4.85;2.70;;;18.30;51.90;;;;;;4937782;28;20442;-71
2023/02/20 12:45:08;;;;;;;6.18;3.00;;;18.00;52.60;;;;;;4972751;28;20411;-66
2023/02/20 12:47:38;;;;;;;;;;;17.80;52.70;;;;;;4973717;28;20039;-69
2023/02/20 12:50:25;;;;;;;6.20;2.70;;;18.00;51.60;;;;;;4972806;28;20311;-68
2023/02/20 12:52:54;;;;;;;5.13;2.47;;;21.80;47.70;;;;;;4970407;28;20047;-70
2023/02/20 12:55:49;;;;;;;5.97;2.17;;;25.00;43.00;;;;;;4954186;28;20043;-69
2023/02/20 12:58:35;;;;;;;4.32;2.38;;;24.10;42.90;;;;;;4952367;28;20110;-70
2023/02/20 13:01:10;;;;;;;5.82;1.90;;;24.80;42.80;;;;;;4937202;28;20073;-69
2023/02/20 13:03:56;;;;;;;6.55;2.63;;;25.90;41.40;;;;;;4971539;28;20117;-71
2023/02/20 13:07:06;;;;;;;4.00;2.10;;;28.00;39.70;;;;;;4970794;28;20038;-71
2023/02/20 13:09:40;;;;;;;5.07;2.00;;;28.30;38.60;;;;;;4960335;28;20078;-70
2023/02/20 13:12:13;;;;;;;8.80;3.35;;;28.20;38.60;;;;;;4966939;28;20109;-73
2023/02/20 13:14:53;;;;;;;6.75;2.80;;;29.20;39.10;;;;;;4952368;28;20117;-71
2023/02/20 13:17:28;;;;;;;5.78;2.42;;;29.70;37.60;;;;;;4968690;28;20039;-72
2023/02/20 13:19:55;;;;;;;5.43;2.45;;;30.70;37.70;;;;;;4969688;28;20047;-70
2023/02/20 13:22:22;;;;;;;5.05;2.20;;;30.30;36.90;;;;;;4953287;28;20046;-71
2023/02/20 13:24:50;;;;;;;6.18;2.70;;;29.40;36.80;;;;;;4952812;28;20035;-70
2023/02/20 13:27:30;;;;;;;12.50;4.32;;;29.60;37.30;;;;;;4970675;28;20046;-70